Stokes, Minnesota
Current Conditions -  °F | °C
As of 12:13 PM on Wednesday 28 Jan 2015 (Local Time) from KFOZ Reporting Station
Haze Haze  
Wind Chill: 21°   Ceiling: 400
Heat Index: 28°   Visibility: 2.5mi
Dew Point: 25°   Wind: 7mph
Humidity: 86%   Direction: 170°S
Pressure: 29.83"   Gusts: NA
Location:  47.7637°N, 93.7058°W
Report Text: KFOZ 281813Z AUTO 17006KT 2 1/2SM BR OVC004 M02/M04 A2983 RMK AO2
Loading
Personal Weather Stations






























Interactive Weather Map New forecast layout! Learn more

10-Day Weather Forecast

Advertisements
Track Severe Weather on mobile